Huvudsida
METAR-TAF:

METAR-TAF

Flygplatser :

Pajala Airport

Pajala, Sverige

latitud: 67-14-44N, longitud: 023-04-08E, höjd: 165 m

Aktuellt väderrapport

Denna rapport gjordes för 1 timme och 5 minuter sedan, klockan 13:50 UTC
Vind 9 kt från väst, varierande mellan väst/sydväst och nordväst
Temperatur 15°C
Fuktighet 67%
Tryck 1001 hPa
Sikt 10 km eller mer

METAR: ESUP 201350Z AUTO 28009KT 250V310 9999 NCD 15/09 Q1001

Tid: 16:55 (14:55 UTC)


TAF: saknas

Aktuella väderrapporter och prognoser från 4000 flygplatser (METAR- och TAF-rapporter).

De tillgängliga stationerna syns som gula och röda prickar på kartan.

För musen över prickarna för att se namnen på stationerna.

Klicka sedan för att få väderrapporter och prognoser.

För att ändra kartan: Klicka på de gröna knapparna med ett svart kors på för att zooma in; den gröna knappen med ett streck på för att zooma ut; eller på de gröna pilarna för angränsande kartor.


METAR-TAF: